Time;durP1;ratioP1;P1;durP2;ratioP2;P2;SDS_P1;SDS_P2;PMS_P1;PMS_P2;Temp;Humidity;BMP_temperature;BMP_pressure;BME280_temperature;BME280_humidity;BME280_pressure;Samples;Min_cycle;Max_cycle;Signal;HPM_P1;HPM_P2
2020/12/15 00:01:59;;;;;;;8.10;1.42;;;;;;;6.83;78.20;98725.97;5072604;28;20542;-51
2020/12/15 00:04:26;;;;;;;5.03;0.77;;;;;;;6.83;78.21;98723.22;5073513;28;20153;-54
2020/12/15 00:06:54;;;;;;;4.68;1.15;;;;;;;6.82;78.43;98716.13;5057380;28;20041;-54
2020/12/15 00:09:20;;;;;;;5.30;1.17;;;;;;;6.83;78.10;98714.97;5054069;28;20098;-48
2020/12/15 00:11:46;;;;;;;6.90;1.58;;;;;;;6.82;78.41;98722.44;5073256;28;20453;-51
2020/12/15 00:14:13;;;;;;;6.22;1.10;;;;;;;6.83;78.36;98728.72;5073134;28;20075;-50
2020/12/15 00:16:39;;;;;;;4.97;1.60;;;;;;;6.83;78.05;98724.00;5073028;28;20067;-48
2020/12/15 00:19:06;;;;;;;1.88;0.47;;;;;;;6.82;78.42;98727.13;5072496;28;20101;-48
2020/12/15 00:21:32;;;;;;;4.78;1.40;;;;;;;6.81;78.22;98736.53;5072944;28;20036;-51
2020/12/15 00:23:59;;;;;;;8.18;1.10;;;;;;;6.79;78.51;98733.38;5072918;28;20044;-52
2020/12/15 00:26:25;;;;;;;5.72;1.10;;;;;;;6.78;78.39;98743.56;5071726;28;20051;-50
2020/12/15 00:28:52;;;;;;;5.43;1.65;;;;;;;6.77;78.42;98741.19;5072988;28;20131;-47
2020/12/15 00:31:19;;;;;;;8.32;1.23;;;;;;;6.76;78.34;98740.41;5072145;28;20052;-51
2020/12/15 00:33:45;;;;;;;6.88;1.02;;;;;;;6.75;78.71;98744.31;5072821;28;20086;-53
2020/12/15 00:36:21;;;;;;;7.25;1.73;;;;;;;6.73;78.75;98746.63;5072802;28;20379;-50
2020/12/15 00:38:48;;;;;;;8.18;0.93;;;;;;;6.75;78.53;98750.59;5073008;28;20454;-51
2020/12/15 00:41:14;;;;;;;7.07;1.13;;;;;;;6.78;78.76;98745.53;5072461;28;20122;-49
2020/12/15 00:43:41;;;;;;;5.50;1.20;;;;;;;6.75;78.81;98745.09;5072953;28;20064;-53
2020/12/15 00:46:12;;;;;;;8.40;0.90;;;;;;;6.73;78.86;98741.94;5072153;28;20086;-49
2020/12/15 00:48:39;;;;;;;8.52;1.30;;;;;;;6.71;78.83;98749.75;5073181;28;20045;-51
2020/12/15 00:51:06;;;;;;;10.02;3.67;;;;;;;6.70;79.04;98748.16;5072606;28;20090;-50
2020/12/15 00:53:32;;;;;;;7.78;1.27;;;;;;;6.71;78.92;98754.47;5072408;28;20431;-48
2020/12/15 00:55:58;;;;;;;4.40;1.40;;;;;;;6.70;78.89;98758.38;5072861;28;20506;-50
2020/12/15 00:58:24;;;;;;;8.00;1.48;;;;;;;6.68;79.09;98747.75;5072913;28;20553;-50
2020/12/15 01:00:51;;;;;;;7.22;1.13;;;;;;;6.67;79.34;98754.41;5075690;28;20123;-51
2020/12/15 01:03:17;;;;;;;3.72;1.15;;;;;;;6.65;79.13;98762.22;5093317;28;20051;-53
2020/12/15 01:05:43;;;;;;;17.17;2.03;;;;;;;6.64;79.30;98757.91;5073429;28;20123;-52
2020/12/15 01:08:10;;;;;;;5.53;0.70;;;;;;;6.62;78.94;98756.66;5072316;28;20545;-48
2020/12/15 01:10:36;;;;;;;6.70;1.08;;;;;;;6.61;79.17;98758.63;5071471;28;20429;-49
2020/12/15 01:13:03;;;;;;;5.97;1.02;;;;;;;6.59;79.18;98768.41;5072610;28;20402;-51
2020/12/15 01:15:29;;;;;;;4.72;1.38;;;;;;;6.54;79.22;98772.25;5071701;28;20082;-56
2020/12/15 01:17:56;;;;;;;1.15;0.50;;;;;;;6.57;79.29;98760.50;5072252;28;20398;-48
2020/12/15 01:20:22;;;;;;;4.47;1.23;;;;;;;6.59;79.26;98762.91;5075412;28;20082;-48
2020/12/15 01:22:48;;;;;;;7.97;1.00;;;;;;;6.60;79.21;98765.28;5075406;28;20040;-49
2020/12/15 01:25:14;;;;;;;6.35;1.15;;;;;;;6.60;79.70;98770.78;5075596;28;20131;-52
2020/12/15 01:27:41;;;;;;;5.30;1.13;;;;;;;6.61;79.48;98768.81;5075760;28;20431;-53
2020/12/15 01:30:08;;;;;;;6.30;1.00;;;;;;;6.60;79.55;98762.53;5074995;28;20062;-51
2020/12/15 01:32:34;;;;;;;7.90;1.15;;;;;;;6.60;79.53;98764.47;5075812;28;20040;-52
2020/12/15 01:35:00;;;;;;;4.68;0.93;;;;;;;6.59;79.30;98758.19;5075738;28;20049;-51
2020/12/15 01:37:26;;;;;;;6.45;0.98;;;;;;;6.60;79.62;98754.28;5075940;28;20041;-52
2020/12/15 01:39:54;;;;;;;5.40;1.50;;;;;;;6.62;79.63;98756.66;5058351;28;20048;-49
2020/12/15 01:42:22;;;;;;;7.20;1.08;;;;;;;6.60;79.47;98764.47;5074699;28;20120;-50
2020/12/15 01:44:50;;;;;;;4.00;0.70;;;;;;;6.60;79.27;98770.78;5075994;28;20470;-48
2020/12/15 01:47:16;;;;;;;7.25;1.15;;;;;;;6.60;79.36;98776.28;5074975;28;20068;-49
2020/12/15 01:49:43;;;;;;;6.18;0.88;;;;;;;6.59;79.27;98774.69;5076226;28;20072;-53
2020/12/15 01:52:12;;;;;;;6.30;1.40;;;;;;;6.57;79.84;98778.97;5075341;28;20037;-47
2020/12/15 01:54:40;;;;;;;5.75;0.90;;;;;;;6.56;79.24;98775.44;5075907;28;20047;-50
2020/12/15 01:57:08;;;;;;;3.80;1.35;;;;;;;6.54;79.46;98780.47;5074996;28;20047;-50
2020/12/15 01:59:37;;;;;;;8.25;1.23;;;;;;;6.53;79.44;98776.16;5076494;28;20139;-47
2020/12/15 02:02:04;;;;;;;4.70;1.02;;;;;;;6.52;79.49;98782.81;5075163;28;20044;-49
2020/12/15 02:04:31;;;;;;;5.50;0.73;;;;;;;6.51;79.56;98783.19;5075904;28;20052;-51
2020/12/15 02:06:57;;;;;;;6.00;1.02;;;;;;;6.52;79.58;98784.75;5075051;28;20119;-49
2020/12/15 02:09:23;;;;;;;4.00;1.02;;;;;;;6.54;79.45;98779.72;5075789;28;20426;-52
2020/12/15 02:11:50;;;;;;;8.35;0.90;;;;;;;6.54;79.28;98780.47;5075501;28;20044;-51
2020/12/15 02:14:16;;;;;;;8.50;0.80;;;;;;;6.51;79.48;98777.69;5075119;28;20529;-52
2020/12/15 02:16:49;;;;;;;8.77;1.10;;;;;;;6.50;79.72;98784.34;5074757;28;20548;-47
2020/12/15 02:19:17;;;;;;;3.38;0.75;;;;;;;6.53;79.71;98776.16;5078677;28;20048;-49
2020/12/15 02:21:50;;;;;;;14.95;1.33;;;;;;;6.56;79.52;98782.88;5075366;28;20048;-49
2020/12/15 02:24:17;;;;;;;4.25;0.73;;;;;;;6.57;79.54;98785.25;5075352;28;20047;-50
2020/12/15 02:26:44;;;;;;;7.28;0.90;;;;;;;6.56;79.60;98788.38;5074392;28;20068;-48
2020/12/15 02:29:10;;;;;;;11.05;0.90;;;;;;;6.55;79.89;98790.34;5075177;28;20127;-50
2020/12/15 02:31:36;;;;;;;9.55;1.50;;;;;;;6.53;79.79;98792.66;5055908;28;20127;-47
2020/12/15 02:34:03;;;;;;;3.47;0.90;;;;;;;6.52;79.68;98787.50;5075113;28;20052;-49
2020/12/15 02:36:29;;;;;;;7.00;0.98;;;;;;;6.48;79.67;98790.22;5075072;28;20048;-51
2020/12/15 02:39:07;;;;;;;3.13;0.90;;;;;;;6.43;79.59;98793.28;5074672;28;20060;-52
2020/12/15 02:41:34;;;;;;;6.80;0.60;;;;;;;6.42;79.53;98794.41;5074408;28;20055;-50
2020/12/15 02:44:01;;;;;;;4.80;0.98;;;;;;;6.41;79.89;98803.00;5075057;28;20041;-52
2020/12/15 02:46:27;;;;;;;1.52;0.47;;;;;;;6.41;79.83;98809.31;5074782;28;20436;-49
2020/12/15 02:48:55;;;;;;;4.30;0.80;;;;;;;6.42;79.70;98802.66;5074704;28;20036;-50
2020/12/15 02:51:23;;;;;;;4.82;0.73;;;;;;;6.43;79.75;98807.00;5050842;28;20446;-50
2020/12/15 02:53:50;;;;;;;6.45;0.63;;;;;;;6.42;79.64;98813.66;5074845;28;20040;-49
2020/12/15 02:56:22;;;;;;;5.25;0.90;;;;;;;6.40;79.54;98815.19;5074515;28;20067;-51
2020/12/15 02:58:50;;;;;;;9.40;1.65;;;;;;;6.40;79.60;98821.47;5074512;28;20043;-50
2020/12/15 03:01:17;;;;;;;2.42;1.00;;;;;;;6.40;79.68;98815.97;5073852;28;20045;-48
2020/12/15 03:03:47;;;;;;;2.88;0.73;;;;;;;6.39;79.53;98824.56;5074606;28;20075;-49
2020/12/15 03:06:14;;;;;;;6.45;0.80;;;;;;;6.38;79.54;98834.75;5073886;28;20094;-48
2020/12/15 03:08:42;;;;;;;4.75;1.10;;;;;;;6.35;79.43;98830.03;5074591;28;20032;-48
2020/12/15 03:11:08;;;;;;;3.53;1.55;;;;;;;6.35;79.65;98835.53;5055998;28;20079;-50
2020/12/15 03:13:35;;;;;;;6.45;1.23;;;;;;;6.33;79.61;98837.81;5056345;28;20106;-48
2020/12/15 03:16:02;;;;;;;6.57;1.45;;;;;;;6.32;79.54;98828.00;5074066;28;20032;-48
2020/12/15 03:18:28;;;;;;;8.13;1.25;;;;;;;6.33;79.52;98837.81;5074040;28;20055;-51
2020/12/15 03:20:55;;;;;;;4.72;2.00;;;;;;;6.31;79.20;98829.16;5073969;28;20076;-48
2020/12/15 03:23:22;;;;;;;4.05;1.33;;;;;;;6.30;79.53;98833.03;5074363;28;20036;-50
2020/12/15 03:25:52;;;;;;;4.95;1.98;;;;;;;6.29;79.25;98831.47;5073052;28;20044;-47
2020/12/15 03:28:22;;;;;;;1.67;0.70;;;;;;;6.29;79.37;98836.16;5073792;28;20048;-48
2020/12/15 03:30:49;;;;;;;3.30;0.93;;;;;;;6.27;79.12;98839.28;5073994;28;20394;-48
2020/12/15 03:33:16;;;;;;;3.03;0.75;;;;;;;6.28;79.57;98840.06;5073964;28;20037;-49
2020/12/15 03:35:43;;;;;;;7.28;0.50;;;;;;;6.31;79.37;98845.63;5073641;28;20086;-50
2020/12/15 03:38:11;;;;;;;7.28;1.17;;;;;;;6.33;79.55;98829.56;5073781;28;20071;-50
2020/12/15 03:40:38;;;;;;;3.67;0.82;;;;;;;6.32;79.49;98836.25;5073715;28;20036;-50
2020/12/15 03:43:05;;;;;;;7.90;0.73;;;;;;;6.31;79.55;98837.38;5073459;28;20509;-50
2020/12/15 03:45:32;;;;;;;5.18;0.98;;;;;;;6.33;79.46;98835.06;5073151;28;20104;-56
2020/12/15 03:47:58;;;;;;;6.15;1.30;;;;;;;6.33;79.62;98829.56;5073012;28;20478;-50
2020/12/15 03:50:25;;;;;;;2.55;1.17;;;;;;;6.30;79.58;98829.53;5073393;28;20075;-51
2020/12/15 03:52:52;;;;;;;6.38;1.38;;;;;;;6.29;79.38;98842.47;5073553;28;20128;-52
2020/12/15 03:55:24;;;;;;;3.88;0.65;;;;;;;6.26;79.71;98837.69;5072957;28;20044;-49
2020/12/15 03:57:51;;;;;;;;;;;;;;;6.22;79.82;98841.53;5073574;28;20482;-51
2020/12/15 04:00:18;;;;;;;4.28;0.60;;;;;;;6.20;79.68;98855.63;5073089;28;19952;-49
2020/12/15 04:02:45;;;;;;;12.05;0.60;;;;;;;6.20;79.62;98841.88;5072917;28;20044;-49
2020/12/15 04:05:11;;;;;;;2.28;0.98;;;;;;;6.18;79.85;98855.19;5073525;28;20079;-53
2020/12/15 04:07:40;;;;;;;4.32;0.70;;;;;;;6.14;79.81;98857.09;5073046;28;20040;-51
2020/12/15 04:10:07;;;;;;;5.13;0.75;;;;;;;6.14;79.76;98859.81;5068960;28;20047;-52
2020/12/15 04:12:48;;;;;;;5.50;1.20;;;;;;;6.13;80.02;98866.47;5072964;28;20052;-50
2020/12/15 04:15:14;;;;;;;6.72;0.90;;;;;;;6.13;80.08;98858.22;5073320;28;20386;-51
2020/12/15 04:17:44;;;;;;;11.02;1.10;;;;;;;6.11;80.16;98861.34;5072744;28;20091;-47
2020/12/15 04:20:11;;;;;;;6.50;0.98;;;;;;;6.12;80.05;98862.91;5073180;28;20037;-51
2020/12/15 04:22:38;;;;;;;4.28;1.25;;;;;;;6.13;80.19;98855.47;5072023;28;20068;-52
2020/12/15 04:25:06;;;;;;;5.50;1.85;;;;;;;6.13;80.26;98858.22;5073169;28;20123;-49
2020/12/15 04:27:33;;;;;;;4.35;0.93;;;;;;;6.13;80.33;98856.28;5073168;28;20040;-48
2020/12/15 04:29:59;;;;;;;3.75;0.80;;;;;;;6.14;80.41;98857.09;5085165;28;20040;-50
2020/12/15 04:32:26;;;;;;;6.40;0.68;;;;;;;6.14;80.33;98857.84;5072995;28;20490;-49
2020/12/15 04:34:52;;;;;;;1.98;0.60;;;;;;;6.16;80.29;98859.44;5072896;28;20143;-50
2020/12/15 04:37:19;;;;;;;8.05;0.90;;;;;;;6.17;80.31;98861.81;5073154;28;20044;-50
2020/12/15 04:39:45;;;;;;;4.38;0.57;;;;;;;6.17;80.25;98863.81;5073033;28;20127;-51
2020/12/15 04:42:13;;;;;;;5.97;1.15;;;;;;;6.14;80.29;98862.56;5072095;28;20048;-48
2020/12/15 04:44:40;;;;;;;2.85;0.43;;;;;;;6.13;80.06;98863.72;5073607;28;20072;-51
2020/12/15 04:47:19;;;;;;;5.07;1.00;;;;;;;6.14;80.21;98868.06;5072549;28;20150;-48
2020/12/15 04:50:09;;;;;;;5.57;0.55;;;;;;;6.14;80.16;98870.81;5073026;28;20052;-49
2020/12/15 04:52:58;;;;;;;5.70;1.00;;;;;;;6.15;80.22;98864.16;5053090;28;20037;-50
2020/12/15 04:55:25;;;;;;;3.20;0.70;;;;;;;6.17;80.14;98866.56;5069062;28;20044;-53
2020/12/15 04:57:59;;;;;;;4.28;0.90;;;;;;;6.15;80.13;98861.41;5076472;28;20106;-52
2020/12/15 05:00:26;;;;;;;6.55;0.65;;;;;;;6.19;80.06;98859.53;5077152;28;20082;-53
2020/12/15 05:02:55;;;;;;;7.47;0.85;;;;;;;6.24;80.24;98861.19;5076595;28;20118;-49
2020/12/15 05:05:23;;;;;;;7.75;0.80;;;;;;;6.25;80.12;98851.81;5059247;28;20051;-48
2020/12/15 05:07:49;;;;;;;12.70;1.40;;;;;;;6.26;80.08;98865.16;5077239;28;20421;-49
2020/12/15 05:10:20;;;;;;;4.50;1.10;;;;;;;6.27;80.13;98855.78;5076197;28;20502;-47
2020/12/15 05:12:48;;;;;;;5.00;0.70;;;;;;;6.29;79.91;98871.88;5075855;28;20080;-49
2020/12/15 05:15:18;;;;;;;5.38;0.88;;;;;;;6.27;80.17;98868.72;5076615;28;20441;-47
2020/12/15 05:17:46;;;;;;;9.13;0.93;;;;;;;6.25;80.21;98869.06;5076744;28;20040;-52
2020/12/15 05:20:18;;;;;;;2.95;0.68;;;;;;;6.24;80.37;98864.75;5077359;28;20459;-50
2020/12/15 05:22:48;;;;;;;3.63;0.65;;;;;;;6.25;80.21;98879.28;5073869;28;20505;-48
2020/12/15 05:25:25;;;;;;;4.60;0.82;;;;;;;6.24;80.10;98881.22;5076348;28;20167;-51
2020/12/15 05:27:53;;;;;;;5.82;0.77;;;;;;;6.26;79.96;98889.91;5058736;28;20044;-49
2020/12/15 05:30:23;;;;;;;6.35;1.30;;;;;;;6.27;79.95;98883.25;5076525;28;20119;-48
2020/12/15 05:32:55;;;;;;;4.28;0.70;;;;;;;6.28;80.14;98884.81;5076112;28;20095;-47
2020/12/15 05:35:34;;;;;;;2.50;0.70;;;;;;;6.28;80.22;98882.06;5075588;28;20044;-49
2020/12/15 05:38:03;;;;;;;7.10;0.70;;;;;;;6.26;79.88;98881.66;5058653;28;20410;-47
2020/12/15 05:40:30;;;;;;;6.90;0.60;;;;;;;6.23;79.77;98896.09;5059086;28;20044;-48
2020/12/15 05:42:59;;;;;;;4.28;0.45;;;;;;;6.25;79.77;98895.75;5075057;28;20113;-46
2020/12/15 05:45:27;;;;;;;4.45;0.40;;;;;;;6.28;79.77;98895.00;5075786;28;20097;-48
2020/12/15 05:48:05;;;;;;;2.25;0.65;;;;;;;6.28;79.33;98889.53;5075755;28;20084;-48
2020/12/15 05:50:32;;;;;;;2.50;0.50;;;;;;;6.29;79.42;98894.66;5076018;28;20040;-47
2020/12/15 05:53:03;;;;;;;5.95;0.68;;;;;;;6.28;79.29;98890.31;5075643;28;20127;-51
2020/12/15 05:55:30;;;;;;;6.68;0.50;;;;;;;6.29;79.22;98896.63;5075763;28;20098;-48
2020/12/15 05:57:58;;;;;;;4.47;0.55;;;;;;;6.30;79.26;98909.22;5075716;28;20048;-50
2020/12/15 06:00:30;;;;;;;2.70;0.75;;;;;;;6.31;79.01;98906.09;5075722;28;20136;-47
2020/12/15 06:03:06;;;;;;;4.82;0.50;;;;;;;6.31;78.91;98906.09;5075274;28;20044;-49
2020/12/15 06:05:35;;;;;;;4.13;0.40;;;;;;;6.32;78.63;98915.13;5075229;28;20115;-49
2020/12/15 06:08:03;;;;;;;3.20;0.52;;;;;;;6.34;78.44;98916.38;5075839;28;20045;-47
2020/12/15 06:10:31;;;;;;;3.95;0.40;;;;;;;6.36;78.41;98922.28;5075262;28;20041;-48
2020/12/15 06:13:01;;;;;;;2.67;0.50;;;;;;;6.35;78.53;98915.22;5075133;28;20494;-49
2020/12/15 06:15:29;;;;;;;2.67;0.40;;;;;;;6.34;78.38;98904.56;5057467;28;20036;-47
2020/12/15 06:18:01;;;;;;;4.93;0.40;;;;;;;6.32;78.66;98917.88;5075065;28;20132;-47
2020/12/15 06:20:34;;;;;;;8.02;0.73;;;;;;;6.29;78.53;98919.41;5075937;28;20474;-49
2020/12/15 06:23:02;;;;;;;6.88;0.70;;;;;;;6.30;78.42;98920.97;5075249;28;20040;-49
2020/12/15 06:25:33;;;;;;;5.03;1.92;;;;;;;6.31;78.15;98917.09;5075407;28;20132;-49
2020/12/15 06:28:07;;;;;;;6.65;0.82;;;;;;;6.32;78.41;98912.38;5074280;28;20055;-47
2020/12/15 06:30:40;;;;;;;3.58;0.55;;;;;;;6.30;78.32;98915.47;5076229;28;20045;-48
2020/12/15 06:33:09;;;;;;;7.97;0.60;;;;;;;6.30;78.58;98920.22;5083272;28;20048;-48
2020/12/15 06:35:36;;;;;;;6.47;0.45;;;;;;;6.27;78.25;98923.66;5074662;28;20444;-48
2020/12/15 06:38:06;;;;;;;3.70;0.50;;;;;;;6.26;78.67;98917.38;5074860;28;20052;-49
2020/12/15 06:40:44;;;;;;;1.13;0.60;;;;;;;6.24;78.40;98916.94;5075130;28;20068;-50
2020/12/15 06:43:29;;;;;;;2.78;0.60;;;;;;;6.20;78.15;98921.56;5073040;28;20074;-47
2020/12/15 06:46:25;;;;;;;2.45;0.43;;;;;;;6.17;78.25;98921.50;5074928;28;20040;-47
2020/12/15 06:48:53;;;;;;;1.52;0.68;;;;;;;6.18;78.44;98923.06;5074383;28;20047;-47
2020/12/15 06:51:33;;;;;;;8.60;0.60;;;;;;;6.14;78.24;98923.78;5043766;28;20139;-48
2020/12/15 06:54:04;;;;;;;1.90;0.75;;;;;;;6.16;78.15;98925.38;5068585;28;20041;-52
2020/12/15 06:56:37;;;;;;;1.58;0.47;;;;;;;6.14;78.19;98928.50;5075292;28;20112;-49
2020/12/15 06:59:07;;;;;;;2.45;1.30;;;;;;;6.13;78.12;98938.69;5056896;28;20406;-50
2020/12/15 07:01:34;;;;;;;4.72;0.47;;;;;;;6.13;78.03;98937.91;5074934;28;20036;-52
2020/12/15 07:04:04;;;;;;;3.17;0.65;;;;;;;6.11;77.93;98937.47;5074029;28;20041;-49
2020/12/15 07:06:30;;;;;;;4.00;1.25;;;;;;;6.12;78.09;98939.03;5074456;28;20478;-50
2020/12/15 07:09:04;;;;;;;1.73;0.60;;;;;;;6.13;77.88;98937.91;5074593;28;20046;-50
2020/12/15 07:11:31;;;;;;;2.83;0.38;;;;;;;6.12;77.96;98945.34;5074346;28;20132;-48
2020/12/15 07:13:59;;;;;;;3.65;0.50;;;;;;;6.11;78.09;98945.72;5073412;28;20572;-49
2020/12/15 07:16:27;;;;;;;3.10;0.55;;;;;;;6.10;77.95;98941.38;5073279;28;20063;-49
2020/12/15 07:18:53;;;;;;;2.28;0.50;;;;;;;6.12;78.09;98950.03;5074518;28;20048;-50
2020/12/15 07:21:21;;;;;;;5.05;0.70;;;;;;;6.12;77.92;98953.59;5074791;28;20135;-48
2020/12/15 07:23:48;;;;;;;5.68;0.47;;;;;;;6.12;78.25;98956.31;5073091;28;20051;-50
2020/12/15 07:26:16;;;;;;;2.95;1.42;;;;;;;6.12;78.05;98956.31;5073650;28;20129;-49
2020/12/15 07:28:48;;;;;;;2.88;0.40;;;;;;;6.09;77.96;98959.00;5056284;28;20036;-48
2020/12/15 07:31:28;;;;;;;2.03;0.47;;;;;;;6.06;77.88;98959.72;5056102;28;20040;-48
2020/12/15 07:34:12;;;;;;;4.25;0.50;;;;;;;6.03;77.95;98966.75;5072943;28;20044;-48
2020/12/15 07:36:42;;;;;;;3.90;0.70;;;;;;;6.01;77.92;98974.50;5073920;28;20091;-51
2020/12/15 07:39:10;;;;;;;5.30;1.05;;;;;;;5.98;78.18;98967.00;5073759;28;20032;-51
2020/12/15 07:41:37;;;;;;;1.42;0.30;;;;;;;5.96;78.04;98976.75;5073998;28;20085;-51
2020/12/15 07:44:07;;;;;;;4.53;0.50;;;;;;;5.94;77.80;98976.31;5072684;28;20032;-49
2020/12/15 07:46:43;;;;;;;3.47;0.70;;;;;;;5.93;78.16;98977.47;5073153;28;20036;-48
2020/12/15 07:49:09;;;;;;;4.30;0.70;;;;;;;5.92;78.22;98981.38;5073290;28;20037;-47
2020/12/15 07:51:40;;;;;;;0.70;0.30;;;;;;;5.89;78.14;98984.81;5073095;28;20537;-51
2020/12/15 07:54:07;;;;;;;2.45;0.60;;;;;;;5.87;78.36;98992.63;5055703;28;20090;-48
2020/12/15 07:56:33;;;;;;;3.10;0.77;;;;;;;5.84;78.17;98994.13;5073698;28;20509;-50
2020/12/15 07:59:00;;;;;;;5.07;0.50;;;;;;;5.83;78.58;98994.44;5072749;28;20048;-49
2020/12/15 08:01:28;;;;;;;3.05;1.10;;;;;;;5.82;78.42;99001.91;5073392;28;20032;-52
2020/12/15 08:04:05;;;;;;;4.50;0.60;;;;;;;5.80;78.34;99000.69;5071014;28;20363;-47
2020/12/15 08:06:34;;;;;;;2.22;0.75;;;;;;;5.79;78.44;99015.56;5072137;28;20040;-48
2020/12/15 08:09:05;;;;;;;5.45;0.88;;;;;;;5.77;78.53;99006.88;5072177;28;20048;-47
2020/12/15 08:11:31;;;;;;;2.28;0.60;;;;;;;5.77;78.30;99015.88;5073130;28;20041;-49
2020/12/15 08:14:04;;;;;;;5.40;0.75;;;;;;;5.78;78.30;99030.41;5072400;28;20383;-51
2020/12/15 08:16:31;;;;;;;2.08;1.15;;;;;;;5.79;78.72;99027.34;5073183;28;20031;-47
2020/12/15 08:19:02;;;;;;;2.08;0.75;;;;;;;5.80;78.67;99026.16;5073266;28;20044;-48
2020/12/15 08:21:43;;;;;;;6.72;0.90;;;;;;;5.83;78.71;99033.69;5072106;28;20456;-47
2020/12/15 08:24:11;;;;;;;6.30;0.50;;;;;;;5.87;78.43;99025.59;5077280;28;20037;-55
2020/12/15 08:26:39;;;;;;;5.05;0.90;;;;;;;5.87;78.51;99029.13;5056028;28;20040;-50
2020/12/15 08:29:11;;;;;;;3.17;1.05;;;;;;;5.88;78.38;99027.16;5058859;28;20048;-53
2020/12/15 08:31:42;;;;;;;8.02;1.92;;;;;;;5.90;78.68;99033.91;5071283;28;20085;-49
2020/12/15 08:34:21;;;;;;;7.35;1.17;;;;;;;5.89;78.61;99042.50;5052540;28;20039;-48
2020/12/15 08:36:53;;;;;;;5.68;1.33;;;;;;;5.89;78.38;99048.00;5071007;28;20127;-50
2020/12/15 08:39:22;;;;;;;5.32;0.82;;;;;;;5.88;78.30;99041.69;5071537;28;20044;-47
2020/12/15 08:41:54;;;;;;;7.53;2.10;;;;;;;5.91;78.23;99051.19;5070676;28;20623;-49
2020/12/15 08:44:22;;;;;;;3.75;0.70;;;;;;;5.92;78.37;99063.75;5072015;28;20106;-46
2020/12/15 08:46:55;;;;;;;3.75;0.95;;;;;;;5.96;78.41;99064.63;5065042;28;20072;-48
2020/12/15 08:49:26;;;;;;;8.55;1.02;;;;;;;5.98;78.38;99060.38;5064169;28;20055;-51
2020/12/15 08:51:54;;;;;;;9.82;1.98;;;;;;;6.05;78.56;99063.31;5042273;28;20131;-48
2020/12/15 08:54:22;;;;;;;1.90;0.50;;;;;;;6.10;78.32;99074.03;5070820;28;20119;-49
2020/12/15 08:56:52;;;;;;;4.47;0.73;;;;;;;6.09;78.57;99068.88;5069565;28;20056;-49
2020/12/15 08:59:20;;;;;;;3.72;0.85;;;;;;;6.09;78.14;99068.88;5071121;28;20049;-49
2020/12/15 09:01:58;;;;;;;5.15;0.70;;;;;;;6.13;78.50;99069.78;5070898;28;20499;-47
2020/12/15 09:04:26;;;;;;;4.55;1.05;;;;;;;6.18;78.76;99076.94;5071311;28;20098;-47
2020/12/15 09:06:52;;;;;;;7.10;1.88;;;;;;;6.19;78.72;99076.59;5070982;28;20083;-50
2020/12/15 09:09:31;;;;;;;3.70;1.33;;;;;;;6.21;78.63;99076.22;5070759;28;20106;-53
2020/12/15 09:11:59;;;;;;;3.97;1.38;;;;;;;6.23;78.64;99080.22;5069358;28;20441;-51
2020/12/15 09:14:25;;;;;;;10.32;2.20;;;;;;;6.26;78.32;99081.44;5069636;28;20102;-52
2020/12/15 09:16:52;;;;;;;5.35;1.48;;;;;;;6.28;78.31;99081.88;5070568;28;20072;-47
2020/12/15 09:19:23;;;;;;;3.90;0.90;;;;;;;6.30;78.27;99074.88;5070832;28;20152;-51
2020/12/15 09:21:58;;;;;;;3.95;1.58;;;;;;;6.32;78.03;99083.59;5073796;28;20486;-52
2020/12/15 09:24:26;;;;;;;5.47;1.20;;;;;;;6.34;78.12;99084.00;5065442;28;20567;-49
2020/12/15 09:26:52;;;;;;;6.63;1.23;;;;;;;6.37;78.21;99091.56;5047487;28;20134;-48
2020/12/15 09:29:19;;;;;;;5.60;1.05;;;;;;;6.41;78.25;99095.16;5070777;28;20056;-50
2020/12/15 09:32:00;;;;;;;9.15;2.15;;;;;;;6.45;78.43;99104.31;5070481;28;20044;-49
2020/12/15 09:34:27;;;;;;;8.15;0.70;;;;;;;6.47;78.17;99101.19;5070679;28;20068;-48
2020/12/15 09:36:57;;;;;;;6.35;1.05;;;;;;;6.47;78.50;99098.44;5070366;28;20049;-51
2020/12/15 09:39:27;;;;;;;7.80;1.38;;;;;;;6.49;78.59;99105.16;5070418;28;20040;-53
2020/12/15 09:42:02;;;;;;;7.15;0.70;;;;;;;6.51;78.58;99108.34;5074400;28;20112;-47
2020/12/15 09:44:30;;;;;;;6.35;1.30;;;;;;;6.55;78.53;99114.75;5073805;28;20127;-49
2020/12/15 09:46:56;;;;;;;6.70;1.35;;;;;;;6.57;78.76;99112.44;5073744;28;20048;-49
2020/12/15 09:49:23;;;;;;;4.95;1.40;;;;;;;6.60;78.64;99106.22;5073563;28;20048;-48
2020/12/15 09:51:50;;;;;;;9.45;1.23;;;;;;;6.63;78.72;99115.69;5074365;28;20143;-52
2020/12/15 09:54:16;;;;;;;8.70;1.15;;;;;;;6.65;79.22;99119.69;5074020;28;20547;-50
2020/12/15 09:56:44;;;;;;;3.72;1.15;;;;;;;6.69;79.76;99120.56;5072822;28;20048;-52
2020/12/15 09:59:11;;;;;;;8.57;1.58;;;;;;;6.74;79.75;99122.25;5073843;28;20455;-49
2020/12/15 10:01:40;;;;;;;7.68;1.13;;;;;;;6.77;80.02;99121.53;5053257;28;20045;-52
2020/12/15 10:04:07;;;;;;;7.13;1.40;;;;;;;6.80;80.16;99115.31;5053701;28;20483;-50
2020/12/15 10:06:33;;;;;;;5.43;1.25;;;;;;;6.85;80.16;99123.28;5072473;28;20428;-49
2020/12/15 10:09:00;;;;;;;7.30;1.52;;;;;;;6.92;80.19;99114.38;5074197;28;20044;-50
2020/12/15 10:11:27;;;;;;;4.80;1.17;;;;;;;6.98;80.19;99118.44;5072541;28;20393;-49
2020/12/15 10:13:54;;;;;;;11.15;2.17;;;;;;;7.03;80.11;99121.69;5055660;28;20076;-51
2020/12/15 10:16:20;;;;;;;13.82;1.88;;;;;;;7.09;80.11;99119.47;5067821;28;20087;-50
2020/12/15 10:18:48;;;;;;;8.75;1.58;;;;;;;7.15;80.20;99120.75;5053130;28;20095;-49
2020/12/15 10:21:18;;;;;;;5.20;1.15;;;;;;;7.22;80.43;99126.41;5064788;28;20398;-52
2020/12/15 10:23:47;;;;;;;5.07;1.05;;;;;;;7.29;80.18;99132.06;5074323;28;20044;-49
2020/12/15 10:26:27;;;;;;;12.18;2.22;;;;;;;7.34;80.28;99140.81;5054739;28;20493;-50
2020/12/15 10:28:54;;;;;;;7.85;1.55;;;;;;;7.39;80.14;99142.47;5051926;28;20059;-49
2020/12/15 10:31:21;;;;;;;8.05;1.80;;;;;;;7.41;80.19;99140.19;5071490;28;20048;-47
2020/12/15 10:33:49;;;;;;;9.13;2.03;;;;;;;7.43;80.18;99142.56;5073078;28;20049;-47
2020/12/15 10:36:16;;;;;;;6.15;1.58;;;;;;;7.46;79.84;99141.84;5073756;28;20444;-49
2020/12/15 10:38:45;;;;;;;4.55;1.05;;;;;;;7.48;79.76;99137.56;5073305;28;20136;-50
2020/12/15 10:41:14;;;;;;;10.65;1.85;;;;;;;7.52;79.57;99149.44;5073320;28;20048;-52
2020/12/15 10:43:40;;;;;;;4.00;1.00;;;;;;;7.55;79.14;99148.72;5057969;28;20048;-48
2020/12/15 10:46:22;;;;;;;6.03;1.17;;;;;;;7.58;78.96;99150.75;5085393;28;20044;-53
2020/12/15 10:48:49;;;;;;;14.02;2.00;;;;;;;7.60;78.88;99142.91;5071498;28;20037;-49
2020/12/15 10:51:16;;;;;;;5.05;0.57;;;;;;;7.60;78.74;99153.91;5050343;28;20380;-49
2020/12/15 10:53:42;;;;;;;1.92;0.40;;;;;;;7.60;78.80;99147.63;5063133;28;20075;-48
2020/12/15 10:56:11;;;;;;;0.88;0.25;;;;;;;7.60;78.69;99142.91;5072899;28;20032;-52
2020/12/15 10:58:39;;;;;;;4.00;0.30;;;;;;;7.61;78.46;99144.50;5072554;28;20078;-48
2020/12/15 11:01:07;;;;;;;4.32;0.77;;;;;;;7.69;78.60;99159.22;5058062;28;20115;-51
2020/12/15 11:03:34;;;;;;;1.10;0.40;;;;;;;7.75;78.51;99150.28;5069713;28;20107;-48
2020/12/15 11:06:03;;;;;;;3.10;0.10;;;;;;;7.81;78.37;99148.03;5072632;28;20048;-55
2020/12/15 11:08:29;;;;;;;2.42;0.47;;;;;;;7.83;78.14;99140.19;5055276;28;20151;-50
2020/12/15 11:10:56;;;;;;;1.30;0.45;;;;;;;7.84;78.38;99137.06;5073112;28;20273;-52
2020/12/15 11:13:22;;;;;;;2.13;0.68;;;;;;;7.84;78.36;99137.06;5072214;28;20122;-53
2020/12/15 11:15:49;;;;;;;1.15;0.50;;;;;;;7.84;78.25;99137.06;5091315;28;20036;-51
2020/12/15 11:18:16;;;;;;;2.72;0.40;;;;;;;7.83;78.24;99146.50;5072611;28;20375;-52
2020/12/15 11:20:42;;;;;;;0.85;0.40;;;;;;;7.82;77.97;99139.41;5071618;28;20045;-51
2020/12/15 11:23:08;;;;;;;1.50;0.47;;;;;;;7.79;77.83;99129.09;5077466;28;20050;-52
2020/12/15 11:25:35;;;;;;;0.30;0.20;;;;;;;7.77;77.65;99128.69;5071709;28;20094;-54
2020/12/15 11:28:01;;;;;;;1.27;0.50;;;;;;;7.72;77.53;99123.47;5066048;28;20036;-52
2020/12/15 11:30:27;;;;;;;0.45;0.38;;;;;;;7.68;77.43;99130.88;5072048;28;20087;-53
2020/12/15 11:32:54;;;;;;;1.80;0.38;;;;;;;7.63;77.21;99117.38;5071672;28;20075;-52
2020/12/15 11:35:20;;;;;;;2.33;0.20;;;;;;;7.61;77.37;99121.66;5054573;28;20045;-53
2020/12/15 11:37:47;;;;;;;1.08;0.32;;;;;;;7.61;77.49;99114.22;5071856;28;20048;-50
2020/12/15 11:40:14;;;;;;;2.50;0.75;;;;;;;7.63;77.58;99119.34;5072151;28;20048;-48
2020/12/15 11:42:41;;;;;;;0.90;0.45;;;;;;;7.64;77.47;99120.94;5053972;28;20564;-53
2020/12/15 11:45:08;;;;;;;1.17;0.30;;;;;;;7.69;77.38;99121.44;5069286;28;20070;-50
2020/12/15 11:47:35;;;;;;;2.85;0.50;;;;;;;7.75;77.30;99116.44;5070809;28;20044;-54
2020/12/15 11:50:05;;;;;;;1.05;0.20;;;;;;;7.77;76.86;99114.91;5054078;28;20047;-53